Time;durP1;ratioP1;P1;durP2;ratioP2;P2;SDS_P1;SDS_P2;PMS_P1;PMS_P2;Temp;Humidity;BMP_temperature;BMP_pressure;BME280_temperature;BME280_humidity;BME280_pressure;Samples;Min_cycle;Max_cycle;Signal;HPM_P1;HPM_P2
2022/01/30 00:01:53;;;;;;;20.47;4.03;;;6.50;99.90;;;;;;5010929;28;20141;-83
2022/01/30 00:04:19;;;;;;;22.07;4.30;;;6.40;99.90;;;;;;5008582;28;20137;-84
2022/01/30 00:06:45;;;;;;;20.47;4.03;;;6.30;99.90;;;;;;4978648;28;20403;-84
2022/01/30 00:09:17;;;;;;;19.90;4.03;;;6.20;99.90;;;;;;4982858;28;20037;-82
2022/01/30 00:11:48;;;;;;;19.80;3.60;;;6.20;99.90;;;;;;4999198;28;20467;-83
2022/01/30 00:14:16;;;;;;;22.27;4.60;;;6.30;99.90;;;;;;4972655;28;20400;-84
2022/01/30 00:16:42;;;;;;;14.80;3.30;;;6.30;99.90;;;;;;5026985;28;20069;-84
2022/01/30 00:19:23;;;;;;;19.17;3.70;;;6.20;99.90;;;;;;5009059;28;20060;-84
2022/01/30 00:22:00;;;;;;;22.43;4.03;;;6.20;99.90;;;;;;5013253;28;20071;-85
2022/01/30 00:24:42;;;;;;;22.07;4.17;;;6.20;99.90;;;;;;5012515;28;20044;-83
2022/01/30 00:27:14;;;;;;;20.60;4.20;;;6.20;99.90;;;;;;4971153;28;20071;-85
2022/01/30 00:29:40;;;;;;;25.57;4.37;;;6.20;99.90;;;;;;4982462;28;20164;-84
2022/01/30 00:32:06;;;;;;;27.43;4.60;;;6.20;99.90;;;;;;5001366;28;20490;-83
2022/01/30 00:34:32;;;;;;;27.37;4.40;;;6.20;99.90;;;;;;4997759;28;20068;-83
2022/01/30 00:36:58;;;;;;;19.67;3.37;;;6.30;99.90;;;;;;5002213;28;20041;-81
2022/01/30 00:39:23;;;;;;;18.50;4.10;;;6.30;99.90;;;;;;5025071;28;20048;-84
2022/01/30 00:41:49;;;;;;;14.27;3.63;;;6.40;99.90;;;;;;4974841;28;20064;-83
2022/01/30 00:44:15;;;;;;;20.70;4.40;;;6.40;99.90;;;;;;4992565;28;20068;-84
2022/01/30 00:46:41;;;;;;;26.13;4.53;;;6.50;99.90;;;;;;5000825;28;20084;-82
2022/01/30 00:49:07;;;;;;;21.90;4.83;;;6.60;99.90;;;;;;4979794;28;20041;-83
2022/01/30 00:51:37;;;;;;;23.53;4.00;;;6.60;99.90;;;;;;5036964;28;20037;-83
2022/01/30 00:54:03;;;;;;;25.87;4.20;;;6.70;99.90;;;;;;4999979;28;20049;-83
2022/01/30 00:56:29;;;;;;;22.47;4.17;;;6.70;99.90;;;;;;4977894;28;20388;-83
2022/01/30 00:58:55;;;;;;;23.40;5.37;;;6.70;99.90;;;;;;5007058;28;20068;-83
2022/01/30 01:01:21;;;;;;;21.60;3.77;;;6.70;99.90;;;;;;5000736;28;20042;-83
2022/01/30 01:03:46;;;;;;;16.60;3.67;;;6.70;99.90;;;;;;4980655;28;20511;-84
2022/01/30 01:06:12;;;;;;;21.43;3.83;;;6.70;99.90;;;;;;4975043;28;20095;-83
2022/01/30 01:08:50;;;;;;;18.30;3.60;;;6.60;99.90;;;;;;5008257;28;20048;-85
2022/01/30 01:14:16;;;;;;;14.57;3.07;;;6.50;99.90;;;;;;4996945;28;20057;-82
2022/01/30 01:24:54;;;;;;;14.23;2.97;;;6.20;99.90;;;;;;4997821;28;20045;-84
2022/01/30 01:27:20;;;;;;;18.37;3.33;;;6.10;99.90;;;;;;4973498;28;20045;-83
2022/01/30 01:29:45;;;;;;;21.07;3.93;;;6.00;99.90;;;;;;4979192;28;20108;-83
2022/01/30 01:32:11;;;;;;;12.67;2.90;;;6.00;99.90;;;;;;4967848;28;20034;-83
2022/01/30 01:34:39;;;;;;;15.10;3.03;;;6.00;99.90;;;;;;4999511;28;20085;-84
2022/01/30 01:37:09;;;;;;;15.50;3.80;;;6.00;99.90;;;;;;5015929;28;20091;-84
2022/01/30 01:39:35;;;;;;;24.00;4.13;;;6.00;99.90;;;;;;5011955;28;20038;-83
2022/01/30 01:42:02;;;;;;;15.30;3.27;;;5.90;99.90;;;;;;4992839;28;20503;-83
2022/01/30 01:47:13;;;;;;;22.80;4.53;;;5.90;99.90;;;;;;5010835;28;20467;-82
2022/01/30 01:49:39;;;;;;;24.17;4.53;;;6.00;99.90;;;;;;5013097;28;20049;-83
2022/01/30 01:52:23;;;;;;;20.03;4.27;;;5.90;99.90;;;;;;4998326;28;20099;-84
2022/01/30 01:54:55;;;;;;;24.80;5.17;;;6.00;99.90;;;;;;4991437;28;20061;-83
2022/01/30 01:57:22;;;;;;;19.92;4.40;;;6.10;99.90;;;;;;5010209;28;20445;-84
2022/01/30 01:59:51;;;;;;;20.20;3.87;;;6.10;99.90;;;;;;5009922;28;20045;-84
2022/01/30 02:02:17;;;;;;;24.40;5.27;;;6.10;99.90;;;;;;5007947;28;20073;-83
2022/01/30 02:04:44;;;;;;;25.60;4.90;;;6.10;99.90;;;;;;4995806;28;20091;-84
2022/01/30 02:09:36;;;;;;;21.50;4.57;;;6.00;99.90;;;;;;4993342;28;20038;-83
2022/01/30 02:12:03;;;;;;;25.07;5.40;;;5.90;99.90;;;;;;4994577;28;20091;-83
2022/01/30 02:14:50;;;;;;;22.20;6.13;;;5.80;99.90;;;;;;4989210;28;20096;-83
2022/01/30 02:25:49;;;;;;;22.30;5.07;;;5.70;99.90;;;;;;5010218;28;20130;-83
2022/01/30 02:28:17;;;;;;;20.90;5.23;;;5.70;99.90;;;;;;5012838;28;20041;-83
2022/01/30 02:30:56;;;;;;;26.33;4.60;;;5.70;99.90;;;;;;5008690;28;20045;-83
2022/01/30 02:33:22;;;;;;;23.50;5.00;;;5.70;99.90;;;;;;4991763;28;20520;-84
2022/01/30 02:35:48;;;;;;;30.93;5.30;;;5.80;99.90;;;;;;4992122;28;20036;-83
2022/01/30 02:38:16;;;;;;;21.93;5.13;;;5.90;99.90;;;;;;4990680;28;20488;-84
2022/01/30 02:40:44;;;;;;;23.27;4.47;;;5.90;99.90;;;;;;5000243;28;20561;-83
2022/01/30 02:43:10;;;;;;;30.00;6.00;;;6.00;99.90;;;;;;4998028;28;20086;-83
2022/01/30 02:45:44;;;;;;;27.30;5.50;;;6.00;99.90;;;;;;4995176;28;20660;-83
2022/01/30 02:53:04;;;;;;;26.80;5.40;;;6.00;99.90;;;;;;5034966;28;20045;-84
2022/01/30 02:55:30;;;;;;;23.03;4.83;;;6.00;99.90;;;;;;5034941;28;20049;-84
2022/01/30 02:57:56;;;;;;;22.40;4.83;;;6.00;99.90;;;;;;5022994;28;20049;-83
2022/01/30 03:00:22;;;;;;;22.23;4.67;;;6.00;99.90;;;;;;4980825;28;20115;-84
2022/01/30 03:02:48;;;;;;;26.13;5.40;;;6.00;99.90;;;;;;4994952;28;20370;-84
2022/01/30 03:05:13;;;;;;;24.50;5.30;;;6.00;99.90;;;;;;4993465;28;20053;-82
2022/01/30 03:07:39;;;;;;;25.50;5.07;;;6.00;99.90;;;;;;5014328;28;20603;-83
2022/01/30 03:10:05;;;;;;;26.50;5.03;;;6.10;99.90;;;;;;5029024;28;20391;-83
2022/01/30 03:12:31;;;;;;;20.90;4.93;;;6.10;99.90;;;;;;5018544;28;20745;-82
2022/01/30 03:14:57;;;;;;;24.93;5.50;;;6.20;99.90;;;;;;5015741;28;20076;-84
2022/01/30 03:17:23;;;;;;;26.70;5.53;;;6.20;99.90;;;;;;4982424;28;20037;-84
2022/01/30 03:19:49;;;;;;;25.33;5.30;;;6.20;99.90;;;;;;4998263;28;20033;-85
2022/01/30 03:22:14;;;;;;;30.60;6.23;;;6.10;99.90;;;;;;4981526;28;20037;-84
2022/01/30 03:24:40;;;;;;;19.77;4.90;;;6.10;99.90;;;;;;4987511;28;20038;-80
2022/01/30 03:27:09;;;;;;;26.20;5.50;;;6.20;99.90;;;;;;4980980;28;20045;-82
2022/01/30 03:29:37;;;;;;;18.53;5.03;;;6.10;99.90;;;;;;5013791;28;20125;-82
2022/01/30 03:32:04;;;;;;;22.60;4.60;;;6.10;99.90;;;;;;5007468;28;20046;-83
2022/01/30 03:34:29;;;;;;;19.60;4.83;;;6.10;99.90;;;;;;5011032;28;20123;-82
2022/01/30 03:36:55;;;;;;;22.07;4.93;;;6.00;99.90;;;;;;4991035;28;20160;-81
2022/01/30 03:39:22;;;;;;;25.00;4.20;;;6.00;99.90;;;;;;5006578;28;20030;-82
2022/01/30 03:41:47;;;;;;;22.47;5.83;;;6.10;99.90;;;;;;5008137;28;20079;-83
2022/01/30 03:44:14;;;;;;;27.20;5.53;;;6.10;99.90;;;;;;4985716;28;20077;-83
2022/01/30 03:46:39;;;;;;;29.43;5.80;;;6.10;99.90;;;;;;4985460;28;20555;-83
2022/01/30 03:49:05;;;;;;;21.17;5.27;;;6.10;99.90;;;;;;5018112;28;20132;-82
2022/01/30 03:51:31;;;;;;;27.03;5.70;;;6.10;99.90;;;;;;5034710;28;20045;-83
2022/01/30 03:53:56;;;;;;;30.03;6.03;;;6.10;99.90;;;;;;4983586;28;20121;-82
2022/01/30 03:56:22;;;;;;;29.53;5.40;;;6.10;99.90;;;;;;5011890;28;20210;-83
2022/01/30 03:58:48;;;;;;;20.43;4.77;;;6.20;99.90;;;;;;4985015;28;20535;-82
2022/01/30 04:01:13;;;;;;;26.17;5.07;;;6.20;99.90;;;;;;4971951;28;20127;-81
2022/01/30 04:03:39;;;;;;;25.97;5.03;;;6.20;99.90;;;;;;5009207;28;20037;-82
2022/01/30 04:06:06;;;;;;;27.77;5.67;;;6.20;99.90;;;;;;4996569;28;20093;-84
2022/01/30 04:08:33;;;;;;;28.77;5.83;;;6.20;99.90;;;;;;4995763;28;20037;-83
2022/01/30 04:10:59;;;;;;;23.10;5.27;;;6.30;99.90;;;;;;4975928;28;20381;-82
2022/01/30 04:13:25;;;;;;;27.13;5.50;;;6.30;99.90;;;;;;4995803;28;20034;-82
2022/01/30 04:15:51;;;;;;;23.97;5.23;;;6.40;99.90;;;;;;5006040;28;20392;-82
2022/01/30 04:18:17;;;;;;;35.43;7.27;;;6.40;99.90;;;;;;5000950;28;20128;-83
2022/01/30 04:20:43;;;;;;;29.17;6.07;;;6.40;99.90;;;;;;5001928;28;20050;-82
2022/01/30 04:23:08;;;;;;;32.37;6.13;;;6.40;99.90;;;;;;5000251;28;20515;-83
2022/01/30 04:25:34;;;;;;;40.33;6.33;;;6.40;99.90;;;;;;4956878;28;20061;-83
2022/01/30 04:28:00;;;;;;;32.00;7.37;;;6.40;99.90;;;;;;5004833;28;20045;-83
2022/01/30 04:30:26;;;;;;;35.60;5.93;;;6.30;99.90;;;;;;4991220;28;20136;-81
2022/01/30 04:32:52;;;;;;;31.97;7.17;;;6.20;99.90;;;;;;4998902;28;20054;-82
2022/01/30 04:35:24;;;;;;;37.23;7.20;;;6.00;99.90;;;;;;4993456;28;20362;-83
2022/01/30 04:55:27;;;;;;;41.10;7.57;;;5.60;99.90;;;;;;5017031;28;20136;-83
2022/01/30 05:02:28;;;;;;;35.00;6.73;;;5.60;99.90;;;;;;4996923;28;20484;-82
2022/01/30 05:05:10;;;;;;;38.07;7.00;;;5.70;99.90;;;;;;4975435;28;20099;-82
2022/01/30 05:07:38;;;;;;;28.30;7.00;;;5.60;99.90;;;;;;5017250;28;20052;-82
2022/01/30 05:10:06;;;;;;;29.50;5.93;;;5.70;99.90;;;;;;5000721;28;20507;-83
2022/01/30 05:12:43;;;;;;;24.10;6.23;;;5.80;99.90;;;;;;5037426;28;20053;-82
2022/01/30 05:15:09;;;;;;;35.03;6.90;;;5.80;99.90;;;;;;4994559;28;20050;-83
2022/01/30 05:17:35;;;;;;;30.57;6.47;;;5.90;99.90;;;;;;5013397;28;20765;-83
2022/01/30 05:20:02;;;;;;;28.87;5.83;;;5.90;99.90;;;;;;5011652;28;20068;-83
2022/01/30 05:22:28;;;;;;;34.43;7.03;;;5.90;99.90;;;;;;4983910;28;20592;-82
2022/01/30 05:24:54;;;;;;;39.13;6.93;;;5.90;99.90;;;;;;5011248;28;20040;-82
2022/01/30 05:27:21;;;;;;;37.87;7.47;;;5.90;99.90;;;;;;5003319;28;20037;-82
2022/01/30 05:29:46;;;;;;;35.23;7.37;;;5.90;99.90;;;;;;5000397;28;20091;-83
2022/01/30 05:32:13;;;;;;;36.93;7.63;;;5.90;99.90;;;;;;5026738;28;20037;-82
2022/01/30 05:34:39;;;;;;;28.83;6.73;;;5.90;99.90;;;;;;5000141;28;20436;-83
2022/01/30 05:37:08;;;;;;;37.03;7.07;;;5.80;99.90;;;;;;4983648;28;20048;-84
2022/01/30 05:39:34;;;;;;;28.20;6.17;;;5.80;99.90;;;;;;4999399;28;20498;-83
2022/01/30 05:42:00;;;;;;;38.57;6.97;;;5.80;99.90;;;;;;5038652;28;20037;-83
2022/01/30 05:44:41;;;;;;;43.83;8.37;;;5.80;99.90;;;;;;5016702;28;20094;-83
2022/01/30 05:47:11;;;;;;;37.27;7.77;;;5.70;99.90;;;;;;5013437;28;20036;-82
2022/01/30 05:49:37;;;;;;;34.17;7.23;;;5.80;99.90;;;;;;5014097;28;20086;-83
2022/01/30 05:52:03;;;;;;;36.93;7.30;;;5.70;99.90;;;;;;5033666;28;20048;-82
2022/01/30 05:54:29;;;;;;;35.93;6.90;;;5.70;99.90;;;;;;4982787;28;20041;-82
2022/01/30 05:56:54;;;;;;;36.13;6.90;;;5.70;99.90;;;;;;4968225;28;20042;-83
2022/01/30 05:59:20;;;;;;;34.90;6.47;;;5.60;99.90;;;;;;4976780;28;20041;-82
2022/01/30 06:01:46;;;;;;;33.40;6.90;;;5.70;99.90;;;;;;4989450;28;20076;-83
2022/01/30 06:04:11;;;;;;;32.03;7.50;;;5.70;99.90;;;;;;4995471;28;20048;-81
2022/01/30 06:06:38;;;;;;;32.87;6.97;;;5.70;99.90;;;;;;5009557;28;20412;-83
2022/01/30 06:09:19;;;;;;;30.60;6.97;;;5.70;99.90;;;;;;5003399;28;20049;-82
2022/01/30 06:11:47;;;;;;;27.73;6.10;;;5.80;99.90;;;;;;5008149;28;20055;-83
2022/01/30 06:14:14;;;;;;;31.80;7.10;;;5.80;99.90;;;;;;5015863;28;20045;-82
2022/01/30 06:16:40;;;;;;;36.03;7.63;;;5.80;99.90;;;;;;4989944;28;20034;-83
2022/01/30 06:19:06;;;;;;;42.37;7.33;;;5.80;99.90;;;;;;4999364;28;20051;-83
2022/01/30 06:21:32;;;;;;;42.17;7.13;;;5.90;99.90;;;;;;5014853;28;20045;-82
2022/01/30 06:23:57;;;;;;;37.43;7.37;;;5.90;99.90;;;;;;4995873;28;20409;-83
2022/01/30 06:26:23;;;;;;;39.83;7.37;;;5.90;99.90;;;;;;5008697;28;20120;-83
2022/01/30 06:28:49;;;;;;;35.77;7.47;;;5.80;99.90;;;;;;5015344;28;20037;-83
2022/01/30 06:31:15;;;;;;;36.90;7.60;;;5.80;99.90;;;;;;4982784;28;20041;-83
2022/01/30 06:33:41;;;;;;;39.07;9.30;;;5.70;99.90;;;;;;5008165;28;20042;-83
2022/01/30 06:36:07;;;;;;;36.13;8.30;;;5.70;99.90;;;;;;5008763;28;20404;-83
2022/01/30 06:38:32;;;;;;;50.90;9.37;;;5.70;99.90;;;;;;4970480;28;20033;-83
2022/01/30 06:40:58;;;;;;;48.63;9.43;;;5.70;99.90;;;;;;4978545;28;20096;-83
2022/01/30 06:43:24;;;;;;;46.20;9.03;;;5.70;99.90;;;;;;5001629;28;20067;-82
2022/01/30 06:45:50;;;;;;;35.30;7.30;;;5.70;99.90;;;;;;5034481;28;20501;-81
2022/01/30 06:48:18;;;;;;;37.03;7.90;;;5.70;99.90;;;;;;5015014;28;20045;-82
2022/01/30 06:50:44;;;;;;;36.77;7.97;;;5.80;99.90;;;;;;4998719;28;20468;-83
2022/01/30 06:53:10;;;;;;;35.57;7.47;;;5.70;99.90;;;;;;4998570;28;20045;-83
2022/01/30 06:55:38;;;;;;;50.77;9.13;;;5.70;99.90;;;;;;5006543;28;20034;-83
2022/01/30 06:58:04;;;;;;;37.57;7.60;;;5.70;99.90;;;;;;4999053;28;20041;-83
2022/01/30 07:00:30;;;;;;;39.33;7.33;;;5.70;99.90;;;;;;5014785;28;20079;-84
2022/01/30 07:02:55;;;;;;;39.77;6.97;;;5.80;99.90;;;;;;5016317;28;20171;-83
2022/01/30 07:05:21;;;;;;;45.77;8.50;;;5.80;99.90;;;;;;4994250;28;20041;-82
2022/01/30 07:07:47;;;;;;;41.17;7.97;;;5.80;99.90;;;;;;4981640;28;20623;-83
2022/01/30 07:10:13;;;;;;;28.53;7.17;;;5.80;99.90;;;;;;4986335;28;20132;-84
2022/01/30 07:12:38;;;;;;;36.17;6.23;;;5.80;99.90;;;;;;4998340;28;20099;-82
2022/01/30 07:15:05;;;;;;;42.60;7.47;;;5.80;99.90;;;;;;4974303;28;20127;-84
2022/01/30 07:17:31;;;;;;;39.57;7.30;;;5.90;99.90;;;;;;4981582;28;20148;-83
2022/01/30 07:19:57;;;;;;;35.37;7.10;;;5.90;99.90;;;;;;4998364;28;20124;-84
2022/01/30 07:22:22;;;;;;;37.83;7.80;;;5.90;99.90;;;;;;4990747;28;20044;-83
2022/01/30 07:24:48;;;;;;;38.57;7.40;;;6.00;99.90;;;;;;4968975;28;20096;-84
2022/01/30 07:27:14;;;;;;;39.17;8.03;;;6.00;99.90;;;;;;5013345;28;20053;-83
2022/01/30 07:29:39;;;;;;;39.53;8.83;;;6.00;99.90;;;;;;4995534;28;20629;-83
2022/01/30 07:32:05;;;;;;;39.00;8.03;;;5.90;99.90;;;;;;4994971;28;20174;-83
2022/01/30 07:34:31;;;;;;;36.27;7.93;;;5.90;99.90;;;;;;5000386;28;20037;-84
2022/01/30 07:36:58;;;;;;;41.90;8.87;;;5.80;99.90;;;;;;5021377;28;20502;-83
2022/01/30 07:39:28;;;;;;;34.53;7.77;;;5.80;99.90;;;;;;4967042;28;20037;-83
2022/01/30 07:41:54;;;;;;;39.70;7.63;;;5.80;99.90;;;;;;4997049;28;20033;-83
2022/01/30 07:44:20;;;;;;;42.10;7.83;;;5.80;99.90;;;;;;4967184;28;20145;-82
2022/01/30 07:46:46;;;;;;;33.53;7.60;;;5.80;99.90;;;;;;5032258;28;20044;-83
2022/01/30 07:49:12;;;;;;;39.00;6.63;;;5.80;99.90;;;;;;5012164;28;20080;-82
2022/01/30 07:51:37;;;;;;;33.67;6.90;;;5.90;99.90;;;;;;4992403;28;20073;-80
2022/01/30 07:54:03;;;;;;;39.23;7.43;;;6.00;99.90;;;;;;4991791;28;20530;-82
2022/01/30 07:56:29;;;;;;;33.70;6.77;;;6.00;99.90;;;;;;5015506;28;20048;-80
2022/01/30 07:58:55;;;;;;;36.67;6.83;;;6.00;99.90;;;;;;4998765;28;20076;-81
2022/01/30 08:01:20;;;;;;;28.77;6.07;;;6.00;99.90;;;;;;5017895;28;20042;-82
2022/01/30 08:03:46;;;;;;;30.10;6.43;;;6.10;99.90;;;;;;5013874;28;20045;-81
2022/01/30 08:06:12;;;;;;;31.10;6.37;;;6.10;99.90;;;;;;5018519;28;20057;-82
2022/01/30 08:08:38;;;;;;;34.87;6.70;;;6.10;99.90;;;;;;5012432;28;20049;-81
2022/01/30 08:11:03;;;;;;;40.17;6.67;;;6.10;99.90;;;;;;4981704;28;20037;-82
2022/01/30 08:13:30;;;;;;;35.23;6.90;;;6.10;99.90;;;;;;4997010;28;20034;-81
2022/01/30 08:15:56;;;;;;;22.17;6.80;;;6.10;99.90;;;;;;4995027;28;20044;-82
2022/01/30 08:18:22;;;;;;;33.73;6.17;;;6.20;99.90;;;;;;4997489;28;20046;-81
2022/01/30 08:20:47;;;;;;;27.83;5.90;;;6.20;99.90;;;;;;4983095;28;21472;-80
2022/01/30 08:23:16;;;;;;;22.47;5.77;;;6.10;99.50;;;;;;4997196;28;20029;-83
2022/01/30 08:25:42;;;;;;;25.47;6.67;;;6.20;99.50;;;;;;4968579;28;20038;-82
2022/01/30 08:28:08;;;;;;;31.20;6.57;;;6.10;99.80;;;;;;5006401;28;20041;-81
2022/01/30 08:30:35;;;;;;;36.27;6.20;;;6.20;99.00;;;;;;4993255;28;20531;-82
2022/01/30 08:33:02;;;;;;;30.80;6.00;;;6.20;99.00;;;;;;4980408;28;20506;-81
2022/01/30 08:35:28;;;;;;;28.37;5.97;;;6.20;98.10;;;;;;4971082;28;20045;-81
2022/01/30 08:37:54;;;;;;;27.67;6.33;;;6.20;97.70;;;;;;5004316;28;20038;-81
2022/01/30 08:40:22;;;;;;;32.87;6.43;;;6.20;97.30;;;;;;4998751;28;20809;-81
2022/01/30 08:42:48;;;;;;;29.77;6.17;;;6.20;97.30;;;;;;4998728;28;20042;-82
2022/01/30 08:45:16;;;;;;;36.37;7.50;;;6.20;96.90;;;;;;4992481;28;20044;-82
2022/01/30 08:47:44;;;;;;;23.63;6.23;;;6.20;96.60;;;;;;4994006;28;20404;-82
2022/01/30 08:50:11;;;;;;;29.37;6.03;;;6.30;96.30;;;;;;4997806;28;20045;-81
2022/01/30 08:52:36;;;;;;;30.50;6.10;;;6.30;96.20;;;;;;4997709;28;20045;-80
2022/01/30 08:55:07;;;;;;;33.20;6.93;;;6.30;96.20;;;;;;4998193;28;20047;-81
2022/01/30 08:57:33;;;;;;;26.93;6.03;;;6.20;96.10;;;;;;5007683;28;20041;-80
2022/01/30 08:59:59;;;;;;;34.17;6.77;;;6.20;96.70;;;;;;5017499;28;20040;-80
2022/01/30 09:02:27;;;;;;;34.63;7.30;;;6.20;97.20;;;;;;5000803;28;20091;-81
2022/01/30 09:04:53;;;;;;;38.50;7.50;;;6.20;97.10;;;;;;5001952;28;20036;-81
2022/01/30 09:07:19;;;;;;;32.30;6.50;;;6.20;97.10;;;;;;4994609;28;20064;-80
2022/01/30 09:09:46;;;;;;;31.20;7.10;;;6.30;96.80;;;;;;4983572;28;20783;-80
2022/01/30 09:12:12;;;;;;;32.67;6.90;;;6.30;96.40;;;;;;5017803;28;20099;-81
2022/01/30 09:14:40;;;;;;;36.80;7.57;;;6.50;96.80;;;;;;4992986;28;20042;-80
2022/01/30 09:17:16;;;;;;;42.57;8.13;;;6.50;96.00;;;;;;4993982;28;20103;-80
2022/01/30 09:19:43;;;;;;;33.23;6.63;;;6.60;96.40;;;;;;4997804;28;20049;-81
2022/01/30 09:22:12;;;;;;;32.27;6.73;;;6.60;96.20;;;;;;5020054;28;20040;-80
2022/01/30 09:24:38;;;;;;;34.40;8.07;;;6.60;96.00;;;;;;5000067;28;20041;-81
2022/01/30 09:27:06;;;;;;;29.80;7.10;;;6.50;96.30;;;;;;5002190;28;20049;-81
2022/01/30 09:29:33;;;;;;;32.43;6.57;;;6.50;96.00;;;;;;4999091;28;20046;-81
2022/01/30 09:31:59;;;;;;;38.93;7.43;;;6.50;96.50;;;;;;4996179;28;20174;-81
2022/01/30 09:34:28;;;;;;;32.60;7.13;;;6.50;96.80;;;;;;5014082;28;20037;-80
2022/01/30 09:36:54;;;;;;;35.27;7.23;;;6.50;96.50;;;;;;5000802;28;20053;-81
2022/01/30 09:39:20;;;;;;;36.03;8.13;;;6.60;95.90;;;;;;5000864;28;20045;-81
2022/01/30 09:41:48;;;;;;;34.10;7.30;;;6.60;96.50;;;;;;5002575;28;20048;-80
2022/01/30 09:44:15;;;;;;;35.73;6.73;;;6.80;95.80;;;;;;4992314;28;20040;-81
2022/01/30 09:46:42;;;;;;;26.07;6.87;;;6.80;95.10;;;;;;5006966;28;20037;-81
2022/01/30 09:49:09;;;;;;;30.60;7.03;;;6.90;94.90;;;;;;4982951;28;20058;-81
2022/01/30 09:51:44;;;;;;;25.20;6.17;;;6.90;95.00;;;;;;4982698;28;20126;-81
2022/01/30 09:54:16;;;;;;;32.13;6.57;;;6.90;94.60;;;;;;4983744;28;20044;-82
2022/01/30 09:56:41;;;;;;;32.30;7.27;;;6.90;94.30;;;;;;5011844;28;20045;-80
2022/01/30 09:59:08;;;;;;;35.00;7.07;;;6.90;94.00;;;;;;4982746;28;20065;-81
2022/01/30 10:01:36;;;;;;;36.33;8.20;;;7.00;94.10;;;;;;4988043;28;20052;-81
2022/01/30 10:04:03;;;;;;;35.57;6.40;;;6.90;92.40;;;;;;4996721;28;20041;-82
2022/01/30 10:06:34;;;;;;;37.20;7.40;;;7.00;92.80;;;;;;4998286;28;20103;-82
2022/01/30 10:09:11;;;;;;;33.87;6.83;;;7.00;92.20;;;;;;5000033;28;20044;-81
2022/01/30 10:11:52;;;;;;;25.80;5.87;;;7.00;89.10;;;;;;5018580;28;20485;-81
2022/01/30 10:14:17;;;;;;;28.27;6.23;;;7.00;91.20;;;;;;5002041;28;20767;-80
2022/01/30 10:16:45;;;;;;;35.70;6.43;;;7.00;91.10;;;;;;5030347;28;20056;-81
2022/01/30 10:19:23;;;;;;;30.10;6.50;;;7.10;90.90;;;;;;5028355;28;20615;-81
2022/01/30 10:22:03;;;;;;;32.23;6.90;;;7.10;90.60;;;;;;4989737;28;20042;-80
2022/01/30 10:24:30;;;;;;;31.37;7.23;;;7.10;89.80;;;;;;5009847;28;20565;-81
2022/01/30 10:26:59;;;;;;;31.27;6.00;;;7.20;90.20;;;;;;5031290;28;20045;-81
2022/01/30 10:29:30;;;;;;;30.83;7.37;;;7.20;90.30;;;;;;4967429;28;20034;-81
2022/01/30 10:32:02;;;;;;;23.02;5.28;;;7.20;90.20;;;;;;5010114;28;20060;-81
2022/01/30 10:34:28;;;;;;;35.65;7.05;;;7.20;88.00;;;;;;5011242;28;20041;-81
2022/01/30 10:37:33;;;;;;;30.07;5.57;;;7.30;89.90;;;;;;5008656;28;20068;-81
2022/01/30 10:40:14;;;;;;;32.50;6.00;;;7.30;85.00;;;;;;4912660;29;20075;-81
2022/01/30 10:42:48;;;;;;;30.40;6.20;;;7.30;85.90;;;;;;4912861;29;20032;-82
2022/01/30 10:45:23;;;;;;;29.27;6.77;;;7.30;85.90;;;;;;4979808;28;20077;-82
2022/01/30 10:47:49;;;;;;;34.87;6.77;;;7.40;87.00;;;;;;5022275;28;20037;-82
2022/01/30 10:50:18;;;;;;;29.27;6.87;;;7.40;87.00;;;;;;5014893;28;20048;-82
2022/01/30 10:52:56;;;;;;;30.90;6.60;;;7.50;86.60;;;;;;5003448;28;20451;-81
2022/01/30 10:55:35;;;;;;;35.17;7.10;;;7.60;87.00;;;;;;5015517;28;20833;-81
2022/01/30 10:58:02;;;;;;;35.17;6.60;;;7.60;85.10;;;;;;5014303;28;20067;-80
2022/01/30 11:00:37;;;;;;;29.77;6.30;;;7.70;85.80;;;;;;5022418;28;20045;-81
2022/01/30 11:03:03;;;;;;;35.07;8.13;;;7.80;85.70;;;;;;5012580;28;20504;-80
2022/01/30 11:05:29;;;;;;;29.30;6.17;;;7.80;86.80;;;;;;5019635;28;20045;-81
2022/01/30 11:07:54;;;;;;;30.83;6.23;;;7.70;86.80;;;;;;5032593;28;20488;-80
2022/01/30 11:10:25;;;;;;;33.90;6.80;;;7.70;88.20;;;;;;5016235;28;20107;-81
2022/01/30 11:13:12;;;;;;;37.53;7.57;;;7.70;88.90;;;;;;5000268;28;20052;-81
2022/01/30 11:15:42;;;;;;;37.77;7.47;;;7.50;89.60;;;;;;5000038;28;20061;-81
2022/01/30 11:18:11;;;;;;;38.87;7.13;;;7.40;90.20;;;;;;4983684;28;20101;-80
2022/01/30 11:20:37;;;;;;;32.93;7.30;;;7.50;90.50;;;;;;4998247;28;20045;-81
2022/01/30 11:23:03;;;;;;;35.40;6.97;;;7.50;90.70;;;;;;4983810;28;20391;-81
2022/01/30 11:25:33;;;;;;;36.13;6.97;;;7.50;90.50;;;;;;5015026;28;20757;-80
2022/01/30 11:28:04;;;;;;;38.70;7.07;;;7.60;90.50;;;;;;5006567;28;20044;-80
2022/01/30 11:30:34;;;;;;;34.70;6.87;;;7.60;89.50;;;;;;5001678;28;20045;-81
2022/01/30 11:33:00;;;;;;;34.53;7.83;;;7.60;89.80;;;;;;5015066;28;20033;-80
2022/01/30 11:35:27;;;;;;;40.23;7.70;;;7.60;88.90;;;;;;5012989;28;20146;-80
2022/01/30 11:37:54;;;;;;;26.00;6.20;;;7.60;89.30;;;;;;5029334;28;20075;-81
2022/01/30 11:40:21;;;;;;;35.97;6.53;;;7.60;87.40;;;;;;5014380;28;20048;-81
2022/01/30 11:42:49;;;;;;;26.97;6.03;;;7.60;87.20;;;;;;5023878;28;20095;-81
2022/01/30 11:45:19;;;;;;;35.47;6.07;;;7.60;88.30;;;;;;5015791;28;20034;-81
2022/01/30 11:48:02;;;;;;;29.77;6.53;;;7.50;85.60;;;;;;5016221;28;20103;-81
2022/01/30 11:50:31;;;;;;;30.47;6.00;;;7.50;83.00;;;;;;5012770;28;20376;-81
2022/01/30 11:53:01;;;;;;;27.67;6.23;;;7.50;86.70;;;;;;5007305;28;20049;-81
2022/01/30 11:55:57;;;;;;;31.97;6.17;;;7.50;86.20;;;;;;5020498;28;20137;-81
2022/01/30 11:58:46;;;;;;;26.00;5.53;;;7.70;84.50;;;;;;5013811;28;20036;-82
2022/01/30 12:01:25;;;;;;;31.53;6.30;;;7.70;83.60;;;;;;4995488;28;20040;-81
2022/01/30 12:04:02;;;;;;;33.23;6.47;;;7.60;84.20;;;;;;5008344;28;20440;-81
2022/01/30 12:06:30;;;;;;;27.87;6.83;;;7.60;84.90;;;;;;5001229;28;20116;-80
2022/01/30 12:08:59;;;;;;;29.73;6.20;;;7.60;84.30;;;;;;4998225;28;20740;-80
2022/01/30 12:11:37;;;;;;;33.57;7.13;;;7.60;84.10;;;;;;5014429;28;20048;-79
2022/01/30 12:14:10;;;;;;;34.13;5.90;;;7.60;83.20;;;;;;5010083;28;20037;-79
2022/01/30 12:16:52;;;;;;;29.80;6.33;;;7.60;84.40;;;;;;4981749;28;20045;-80
2022/01/30 12:19:47;;;;;;;;;;;7.70;82.10;;;;;;4998010;28;20049;-81
2022/01/30 12:22:16;;;;;;;33.47;6.70;;;7.60;80.90;;;;;;4990798;28;19928;-80
2022/01/30 12:24:42;;;;;;;32.57;6.83;;;7.60;84.50;;;;;;5015990;28;20091;-80
2022/01/30 12:27:08;;;;;;;31.70;6.33;;;7.70;84.50;;;;;;5000677;28;20135;-81
2022/01/30 12:29:42;;;;;;;30.23;6.23;;;7.70;84.60;;;;;;4997497;28;20133;-80
2022/01/30 12:32:20;;;;;;;36.07;6.73;;;7.70;84.30;;;;;;5000374;28;20043;-80
2022/01/30 12:34:47;;;;;;;28.40;6.30;;;7.70;83.40;;;;;;4996106;28;20077;-81
2022/01/30 12:37:20;;;;;;;35.77;6.73;;;7.70;84.90;;;;;;4984222;28;20100;-80
2022/01/30 12:39:46;;;;;;;33.90;6.70;;;7.60;84.90;;;;;;4999677;28;20168;-81
2022/01/30 12:42:16;;;;;;;27.13;6.73;;;7.50;85.80;;;;;;4971440;28;21297;-80
2022/01/30 12:44:43;;;;;;;20.80;5.73;;;7.40;84.90;;;;;;5016177;28;20041;-81
2022/01/30 12:47:09;;;;;;;30.90;6.30;;;7.30;86.30;;;;;;5006149;28;20048;-81
2022/01/30 12:49:42;;;;;;;30.63;5.90;;;7.30;86.20;;;;;;5004093;28;20033;-81
2022/01/30 12:52:16;;;;;;;23.37;5.13;;;7.30;85.80;;;;;;5003757;28;20045;-81
2022/01/30 12:54:43;;;;;;;39.50;7.80;;;7.40;85.70;;;;;;4983105;28;20049;-81
2022/01/30 12:57:11;;;;;;;24.40;5.70;;;7.60;84.70;;;;;;5044851;28;20037;-81
2022/01/30 12:59:37;;;;;;;28.23;6.47;;;7.70;84.50;;;;;;5023344;28;20038;-81
2022/01/30 13:02:12;;;;;;;34.33;6.20;;;7.70;84.60;;;;;;5026167;28;20038;-81
2022/01/30 13:04:38;;;;;;;30.67;6.60;;;7.80;84.80;;;;;;5017305;28;20034;-81
2022/01/30 13:07:04;;;;;;;31.70;6.50;;;7.90;85.80;;;;;;4971542;28;20522;-81
2022/01/30 13:09:31;;;;;;;30.17;5.67;;;7.80;86.00;;;;;;4988223;28;20537;-81
2022/01/30 13:12:02;;;;;;;27.70;7.03;;;7.90;86.30;;;;;;4986076;28;20412;-81
2022/01/30 13:14:37;;;;;;;36.40;6.10;;;7.80;86.60;;;;;;4997357;28;20484;-81
2022/01/30 13:17:04;;;;;;;30.50;6.20;;;7.90;87.30;;;;;;5007065;28;20041;-82
2022/01/30 13:19:44;;;;;;;35.87;6.93;;;7.80;87.90;;;;;;5014639;28;20093;-81
2022/01/30 13:22:22;;;;;;;25.83;4.97;;;7.60;84.90;;;;;;5027815;28;20034;-81
2022/01/30 13:24:59;;;;;;;32.90;5.57;;;7.40;84.90;;;;;;4998236;28;20127;-82
2022/01/30 13:27:25;;;;;;;29.33;6.03;;;7.20;84.30;;;;;;4981483;28;20044;-81
2022/01/30 13:29:54;;;;;;;24.73;5.43;;;7.10;85.30;;;;;;4998415;28;20519;-80
2022/01/30 13:32:22;;;;;;;25.03;4.73;;;7.10;85.40;;;;;;4968864;28;20077;-80
2022/01/30 13:34:49;;;;;;;31.43;7.13;;;7.20;85.50;;;;;;4996145;28;20064;-80
2022/01/30 13:37:18;;;;;;;35.27;6.50;;;7.10;86.10;;;;;;4983011;28;20112;-81
2022/01/30 13:40:00;;;;;;;28.63;6.60;;;7.20;85.90;;;;;;5010721;28;20165;-80
2022/01/30 13:48:02;;;;;;;25.13;6.13;;;7.40;85.20;;;;;;5010659;28;20096;-80
2022/01/30 13:50:37;;;;;;;28.73;5.67;;;7.40;85.60;;;;;;4989963;28;20099;-80
2022/01/30 13:53:11;;;;;;;27.00;5.60;;;7.50;85.40;;;;;;4986298;28;20046;-81